createdAt,value
2015-12-26T00:00:15.764Z,19.94
2015-12-26T00:01:15.733Z,19.84
2015-12-26T00:02:18.863Z,19.89
2015-12-26T00:03:15.675Z,19.85
2015-12-26T00:04:15.632Z,19.85
2015-12-26T00:05:15.619Z,19.86
2015-12-26T00:06:15.621Z,19.86
2015-12-26T00:07:14.811Z,19.89
2015-12-26T00:08:15.533Z,19.89
2015-12-26T00:09:15.489Z,19.92
2015-12-26T00:10:15.741Z,19.88
2015-12-26T00:11:15.431Z,19.86
2015-12-26T00:12:15.418Z,19.88
2015-12-26T00:13:15.374Z,19.88
2015-12-26T00:14:15.549Z,19.79
2015-12-26T00:15:15.333Z,19.84
2015-12-26T00:16:15.290Z,19.77
2015-12-26T00:17:15.246Z,19.74
2015-12-26T00:18:15.639Z,19.82
2015-12-26T00:19:15.204Z,19.77
2015-12-26T00:20:15.160Z,19.77
2015-12-26T00:21:15.163Z,19.77
2015-12-26T00:22:15.134Z,19.74
2015-12-26T00:23:15.090Z,19.79
2015-12-26T00:24:15.405Z,19.76
2015-12-26T00:25:15.032Z,19.71
2015-12-26T00:26:15.348Z,19.76
2015-12-26T00:27:14.976Z,19.74
2015-12-26T00:28:14.931Z,19.81
2015-12-26T00:29:15.122Z,19.73
2015-12-26T00:30:14.906Z,19.74
2015-12-26T00:31:14.831Z,19.76
2015-12-26T00:32:14.833Z,19.74
2015-12-26T00:33:14.820Z,19.69
2015-12-26T00:34:15.135Z,19.76
2015-12-26T00:35:14.732Z,19.67
2015-12-26T00:36:14.720Z,19.69
2015-12-26T00:37:14.723Z,19.64
2015-12-26T00:38:14.662Z,19.74
2015-12-26T00:39:14.617Z,19.71
2015-12-26T00:40:14.605Z,19.76
2015-12-26T00:41:14.562Z,19.66
2015-12-26T00:42:14.829Z,19.7
2015-12-26T00:43:14.489Z,19.7
2015-12-26T00:44:14.459Z,19.71
2015-12-26T00:45:14.665Z,19.71
2015-12-26T00:46:14.403Z,19.62
2015-12-26T00:47:14.359Z,19.7
2015-12-26T00:48:14.470Z,19.67
2015-12-26T00:49:14.317Z,19.71
2015-12-26T00:50:14.289Z,19.67
2015-12-26T00:51:14.260Z,19.62
2015-12-26T00:52:14.247Z,19.71
2015-12-26T00:53:14.391Z,19.67
2015-12-26T00:54:14.393Z,19.69
2015-12-26T00:55:14.146Z,19.66
2015-12-26T00:56:14.320Z,19.58
2015-12-26T00:57:14.260Z,19.66
2015-12-26T00:58:14.041Z,19.69
2015-12-26T00:59:17.032Z,19.63
2015-12-26T01:00:13.985Z,19.7
2015-12-26T01:01:13.972Z,19.67
2015-12-26T01:02:13.928Z,19.63
2015-12-26T01:03:13.915Z,19.62
2015-12-26T01:04:14.058Z,19.58
2015-12-26T01:05:13.841Z,19.62
2015-12-26T01:06:13.813Z,19.58
2015-12-26T01:07:13.785Z,19.59
2015-12-26T01:08:13.757Z,19.55
2015-12-26T01:09:13.728Z,19.55
2015-12-26T01:10:14.012Z,19.56
2015-12-26T01:11:13.670Z,19.54
2015-12-26T01:12:13.846Z,19.58
2015-12-26T01:13:13.613Z,19.52
2015-12-26T01:14:13.585Z,19.56
2015-12-26T01:15:13.760Z,19.64
2015-12-26T01:16:13.528Z,19.55
2015-12-26T01:17:13.500Z,19.63
2015-12-26T01:18:13.535Z,19.63
2015-12-26T01:19:13.412Z,19.59
2015-12-26T01:20:13.962Z,19.59
2015-12-26T01:21:13.401Z,19.62
2015-12-26T01:22:20.342Z,19.55
2015-12-26T01:23:13.516Z,19.59
2015-12-26T01:24:15.051Z,19.58
2015-12-26T01:25:13.272Z,19.63
2015-12-26T01:26:13.228Z,19.58
2015-12-26T01:27:13.199Z,19.56
2015-12-26T01:28:13.154Z,19.54
2015-12-26T01:29:13.173Z,19.59
2015-12-26T01:30:12.379Z,19.63
2015-12-26T01:31:13.413Z,19.56
2015-12-26T01:32:16.056Z,19.56
2015-12-26T01:33:12.279Z,19.62
2015-12-26T01:34:13.188Z,19.56
2015-12-26T01:35:12.956Z,19.63
2015-12-26T01:36:12.943Z,19.55
2015-12-26T01:37:12.914Z,19.56
2015-12-26T01:38:12.854Z,19.56
2015-12-26T01:39:12.842Z,19.62
2015-12-26T01:40:12.829Z,19.58
2015-12-26T01:41:12.784Z,19.58
2015-12-26T01:42:12.929Z,19.56
2015-12-26T01:43:12.712Z,19.56
2015-12-26T01:44:12.542Z,19.54
2015-12-26T01:45:12.873Z,19.52
2015-12-26T01:46:12.626Z,19.48
2015-12-26T01:47:12.598Z,19.52
2015-12-26T01:48:12.647Z,19.49
2015-12-26T01:49:12.556Z,19.52
2015-12-26T01:50:12.636Z,19.56
2015-12-26T01:51:12.483Z,19.52
2015-12-26T01:52:12.455Z,19.52
2015-12-26T01:53:12.630Z,19.52
2015-12-26T01:54:12.633Z,19.52
2015-12-26T01:55:12.351Z,19.49
2015-12-26T01:56:12.339Z,19.51
2015-12-26T01:57:12.341Z,19.54
2015-12-26T01:58:12.266Z,19.51
2015-12-26T01:59:12.237Z,19.49
2015-12-26T02:00:12.239Z,19.51
2015-12-26T02:01:12.383Z,19.48
2015-12-26T02:02:12.166Z,19.51
2015-12-26T02:03:12.138Z,19.52
2015-12-26T02:04:12.110Z,19.41
2015-12-26T02:05:12.066Z,19.49
2015-12-26T02:06:12.038Z,19.47
2015-12-26T02:07:12.025Z,19.49
2015-12-26T02:08:12.012Z,19.36
2015-12-26T02:09:12.077Z,19.52
2015-12-26T02:10:11.908Z,19.39
2015-12-26T02:11:11.894Z,19.52
2015-12-26T02:12:12.069Z,19.45
2015-12-26T02:13:12.261Z,19.37
2015-12-26T02:14:11.794Z,19.4
2015-12-26T02:15:11.797Z,19.4
2015-12-26T02:16:11.738Z,19.51
2015-12-26T02:17:11.161Z,19.59
2015-12-26T02:18:11.774Z,19.56
2015-12-26T02:19:11.667Z,19.58
2015-12-26T02:20:11.639Z,19.51
2015-12-26T02:21:11.594Z,19.54
2015-12-26T02:22:11.582Z,19.62
2015-12-26T02:23:11.537Z,19.52
2015-12-26T02:24:10.775Z,19.48
2015-12-26T02:25:11.481Z,19.52
2015-12-26T02:26:11.468Z,19.47
2015-12-26T02:27:11.407Z,19.49
2015-12-26T02:28:11.442Z,19.4
2015-12-26T02:29:11.351Z,19.48
2015-12-26T02:30:11.369Z,19.48
2015-12-26T02:31:11.513Z,19.48
2015-12-26T02:32:11.390Z,19.49
2015-12-26T02:33:11.237Z,19.48
2015-12-26T02:34:11.224Z,19.54
2015-12-26T02:35:11.180Z,19.34
2015-12-26T02:36:11.151Z,19.37
2015-12-26T02:37:11.123Z,19.4
2015-12-26T02:38:11.094Z,19.45
2015-12-26T02:39:11.050Z,19.4
2015-12-26T02:40:11.194Z,19.39
2015-12-26T02:41:11.009Z,19.37
2015-12-26T02:42:10.980Z,19.39
2015-12-26T02:43:10.951Z,19.39
2015-12-26T02:44:10.907Z,19.37
2015-12-26T02:45:10.895Z,19.37
2015-12-26T02:46:10.851Z,19.44
2015-12-26T02:47:10.931Z,19.4
2015-12-26T02:48:10.825Z,19.37
2015-12-26T02:49:10.796Z,19.41
2015-12-26T02:50:10.781Z,19.4
2015-12-26T02:51:10.862Z,19.4
2015-12-26T02:52:10.692Z,19.37
2015-12-26T02:53:10.632Z,19.36
2015-12-26T02:54:10.667Z,19.41
2015-12-26T02:55:10.606Z,19.37
2015-12-26T02:56:10.593Z,19.41
2015-12-26T02:57:10.518Z,19.36
2015-12-26T02:58:10.692Z,19.4
2015-12-26T02:59:10.461Z,19.37
2015-12-26T03:00:10.275Z,19.4
2015-12-26T03:01:10.403Z,19.31
2015-12-26T03:02:10.361Z,19.37
2015-12-26T03:03:10.364Z,19.31
2015-12-26T03:04:10.334Z,19.4
2015-12-26T03:05:10.275Z,19.27
2015-12-26T03:06:10.371Z,19.39
2015-12-26T03:07:10.233Z,19.4
2015-12-26T03:08:10.189Z,19.34
2015-12-26T03:09:10.255Z,19.39
2015-12-26T03:10:10.163Z,19.36
2015-12-26T03:11:10.103Z,19.34
2015-12-26T03:12:10.091Z,19.36
2015-12-26T03:13:13.061Z,19.31
2015-12-26T03:14:10.033Z,19.37
2015-12-26T03:15:10.302Z,19.29
2015-12-26T03:16:09.945Z,19.36
2015-12-26T03:17:10.027Z,19.31
2015-12-26T03:18:09.935Z,19.33
2015-12-26T03:19:09.875Z,19.34
2015-12-26T03:20:10.049Z,19.33
2015-12-26T03:21:09.803Z,19.3
2015-12-26T03:22:09.790Z,19.33
2015-12-26T03:23:09.746Z,19.31
2015-12-26T03:24:10.155Z,19.33
2015-12-26T03:25:09.907Z,19.37
2015-12-26T03:26:09.660Z,19.31
2015-12-26T03:27:09.631Z,19.31
2015-12-26T03:28:09.743Z,19.33
2015-12-26T03:29:09.605Z,19.3
2015-12-26T03:30:09.530Z,19.37
2015-12-26T03:31:09.502Z,19.34
2015-12-26T03:32:09.488Z,19.36
2015-12-26T03:33:09.476Z,19.29
2015-12-26T03:34:09.416Z,19.33
2015-12-26T03:35:09.419Z,19.22
2015-12-26T03:36:09.515Z,19.24
2015-12-26T03:37:09.362Z,19.26
2015-12-26T03:38:09.301Z,19.34
2015-12-26T03:39:09.493Z,19.27
2015-12-26T03:40:09.308Z,19.22
2015-12-26T03:41:09.231Z,19.22
2015-12-26T03:42:09.187Z,19.24
2015-12-26T03:43:09.191Z,19.33
2015-12-26T03:44:09.146Z,19.22
2015-12-26T03:45:09.102Z,19.34
2015-12-26T03:46:09.058Z,19.37
2015-12-26T03:47:09.139Z,19.36
2015-12-26T03:48:09.017Z,19.31
2015-12-26T03:49:08.972Z,19.33
2015-12-26T03:50:09.412Z,19.34
2015-12-26T03:51:08.915Z,19.26
2015-12-26T03:52:08.886Z,19.41
2015-12-26T03:53:08.890Z,19.29
2015-12-26T03:54:08.971Z,19.39
2015-12-26T03:55:09.130Z,19.3
2015-12-26T03:56:08.770Z,19.37
2015-12-26T03:57:08.772Z,19.27
2015-12-26T03:58:08.822Z,19.29
2015-12-26T03:59:08.684Z,19.37
2015-12-26T04:00:08.656Z,19.4
2015-12-26T04:01:08.601Z,19.39
2015-12-26T04:02:08.604Z,19.41
2015-12-26T04:03:08.575Z,19.41
2015-12-26T04:04:08.547Z,19.36
2015-12-26T04:05:08.518Z,19.41
2015-12-26T04:06:08.599Z,19.36
2015-12-26T04:07:08.460Z,19.39
2015-12-26T04:08:08.432Z,19.41
2015-12-26T04:09:08.388Z,19.37
2015-12-26T04:10:08.375Z,19.4
2015-12-26T04:11:08.316Z,19.4
2015-12-26T04:12:08.318Z,19.44
2015-12-26T04:13:08.290Z,19.4
2015-12-26T04:14:08.246Z,19.41
2015-12-26T04:15:08.217Z,19.45
2015-12-26T04:16:08.173Z,19.44
2015-12-26T04:17:08.145Z,19.41
2015-12-26T04:18:08.116Z,19.4
2015-12-26T04:19:08.071Z,19.4
2015-12-26T04:20:07.918Z,19.44
2015-12-26T04:21:08.233Z,19.41
2015-12-26T04:22:08.017Z,19.45
2015-12-26T04:23:07.973Z,19.37
2015-12-26T04:24:08.116Z,19.44
2015-12-26T04:25:08.010Z,19.4
2015-12-26T04:26:07.887Z,19.36
2015-12-26T04:27:07.858Z,19.37
2015-12-26T04:28:07.830Z,19.47
2015-12-26T04:29:07.865Z,19.44
2015-12-26T04:30:07.773Z,19.41
2015-12-26T04:31:07.729Z,19.44
2015-12-26T04:32:07.903Z,19.36
2015-12-26T04:33:07.689Z,19.41
2015-12-26T04:34:07.675Z,19.44
2015-12-26T04:35:07.615Z,19.37
2015-12-26T04:36:07.587Z,19.39
2015-12-26T04:37:07.558Z,19.45
2015-12-26T04:38:07.531Z,19.41
2015-12-26T04:39:07.501Z,19.51
2015-12-26T04:40:07.583Z,19.45
2015-12-26T04:41:07.445Z,19.41
2015-12-26T04:42:07.400Z,19.33
2015-12-26T04:43:07.434Z,19.45
2015-12-26T04:44:07.344Z,19.39
2015-12-26T04:45:07.315Z,19.44
2015-12-26T04:46:07.505Z,19.37
2015-12-26T04:47:10.289Z,19.4
2015-12-26T04:48:07.230Z,19.4
2015-12-26T04:49:07.201Z,19.49
2015-12-26T04:50:07.797Z,19.48
2015-12-26T04:51:07.238Z,19.48
2015-12-26T04:52:07.116Z,19.39
2015-12-26T04:53:10.086Z,19.51
2015-12-26T04:54:07.261Z,19.36
2015-12-26T04:55:07.514Z,19.48
2015-12-26T04:56:07.002Z,19.34
2015-12-26T04:57:07.254Z,19.49
2015-12-26T04:58:06.944Z,19.4
2015-12-26T04:59:07.025Z,19.39
2015-12-26T05:00:20.933Z,19.44
2015-12-26T05:01:06.855Z,19.37
2015-12-26T05:02:06.968Z,19.51
2015-12-26T05:03:06.783Z,19.44
2015-12-26T05:04:06.754Z,19.36
2015-12-26T05:05:06.741Z,19.45
2015-12-26T05:06:06.697Z,19.37
2015-12-26T05:07:06.684Z,19.41
2015-12-26T05:08:06.641Z,19.34
2015-12-26T05:09:06.613Z,19.49
2015-12-26T05:10:06.755Z,19.36
2015-12-26T05:11:06.540Z,19.45
2015-12-26T05:12:06.402Z,19.37
2015-12-26T05:13:06.623Z,19.51
2015-12-26T05:14:06.485Z,19.36
2015-12-26T05:15:06.440Z,19.4
2015-12-26T05:16:06.412Z,19.39
2015-12-26T05:17:06.602Z,19.37
2015-12-26T05:18:06.355Z,19.48
2015-12-26T05:19:06.327Z,19.41
2015-12-26T05:20:06.439Z,19.41
2015-12-26T05:21:06.380Z,19.37
2015-12-26T05:22:06.227Z,19.4
2015-12-26T05:23:06.666Z,19.41
2015-12-26T05:24:06.168Z,19.34
2015-12-26T05:25:06.171Z,19.49
2015-12-26T05:26:06.112Z,19.49
2015-12-26T05:27:06.084Z,19.36
2015-12-26T05:28:06.046Z,19.47
2015-12-26T05:29:05.676Z,19.41
2015-12-26T05:30:05.962Z,19.47
2015-12-26T05:31:05.920Z,19.45
2015-12-26T05:32:05.894Z,19.36
2015-12-26T05:33:05.827Z,19.45
2015-12-26T05:34:05.825Z,19.47
2015-12-26T05:35:05.792Z,19.47
2015-12-26T05:36:05.807Z,19.44
2015-12-26T05:37:05.711Z,19.37
2015-12-26T05:38:05.695Z,19.4
2015-12-26T05:39:05.852Z,19.52
2015-12-26T05:40:05.619Z,19.37
2015-12-26T05:41:05.573Z,19.48
2015-12-26T05:42:05.558Z,19.36
2015-12-26T05:43:05.513Z,19.36
2015-12-26T05:44:05.485Z,19.4
2015-12-26T05:45:05.455Z,19.39
2015-12-26T05:46:05.426Z,19.51
2015-12-26T05:47:05.601Z,19.47
2015-12-26T05:48:05.369Z,19.39
2015-12-26T05:49:05.308Z,19.48
2015-12-26T05:50:05.296Z,19.39
2015-12-26T05:51:05.264Z,19.36
2015-12-26T05:52:05.235Z,19.49
2015-12-26T05:53:05.221Z,19.36
2015-12-26T05:54:05.162Z,19.37
2015-12-26T05:55:05.571Z,19.41
2015-12-26T05:56:05.137Z,19.49
2015-12-26T05:57:05.092Z,19.44
2015-12-26T05:58:05.282Z,19.4
2015-12-26T05:59:05.035Z,19.41
2015-12-26T06:00:05.023Z,19.36
2015-12-26T06:01:04.962Z,19.39
2015-12-26T06:02:04.950Z,19.41
2015-12-26T06:03:04.905Z,19.36
2015-12-26T06:04:05.095Z,19.4
2015-12-26T06:05:04.879Z,19.37
2015-12-26T06:06:05.023Z,19.49
2015-12-26T06:07:04.792Z,19.48
2015-12-26T06:08:04.779Z,19.49
2015-12-26T06:09:04.969Z,19.34
2015-12-26T06:10:04.722Z,19.41
2015-12-26T06:11:04.678Z,19.47
2015-12-26T06:12:04.649Z,19.4
2015-12-26T06:13:04.636Z,19.41
2015-12-26T06:14:04.701Z,19.41
2015-12-26T06:15:04.564Z,19.47
2015-12-26T06:16:04.535Z,19.39
2015-12-26T06:17:04.631Z,19.34
2015-12-26T06:18:04.462Z,19.47
2015-12-26T06:19:04.434Z,19.51
2015-12-26T06:20:04.420Z,19.48
2015-12-26T06:21:04.393Z,19.45
2015-12-26T06:22:04.365Z,19.45
2015-12-26T06:23:04.320Z,19.48
2015-12-26T06:24:04.292Z,19.47
2015-12-26T06:25:04.420Z,19.48
2015-12-26T06:26:04.219Z,19.45
2015-12-26T06:27:07.222Z,19.36
2015-12-26T06:28:04.286Z,19.4
2015-12-26T06:29:04.149Z,19.4
2015-12-26T06:30:04.136Z,19.48
2015-12-26T06:31:04.091Z,19.41
2015-12-26T06:32:04.266Z,19.36
2015-12-26T06:33:04.050Z,19.45
2015-12-26T06:34:04.006Z,19.49
2015-12-26T06:35:03.962Z,19.37
2015-12-26T06:36:04.074Z,19.41
2015-12-26T06:37:03.905Z,19.45
2015-12-26T06:38:03.891Z,19.4
2015-12-26T06:39:03.847Z,19.47
2015-12-26T06:40:03.836Z,19.48
2015-12-26T06:41:03.807Z,19.45
2015-12-26T06:42:03.794Z,19.39
2015-12-26T06:43:04.031Z,19.45
2015-12-26T06:44:03.703Z,19.45
2015-12-26T06:45:03.691Z,19.47
2015-12-26T06:46:03.646Z,19.41
2015-12-26T06:47:03.633Z,19.36
2015-12-26T06:48:03.588Z,19.45
2015-12-26T06:49:03.576Z,19.4
2015-12-26T06:50:03.547Z,19.34
2015-12-26T06:51:03.596Z,19.45
2015-12-26T06:52:03.490Z,19.34
2015-12-26T06:53:03.477Z,19.41
2015-12-26T06:54:03.480Z,19.41
2015-12-26T06:55:03.373Z,19.52
2015-12-26T06:56:03.360Z,19.37
2015-12-26T06:57:03.316Z,19.4
2015-12-26T06:58:03.304Z,19.37
2015-12-26T06:59:03.260Z,19.36
2015-12-26T07:00:03.231Z,19.36
2015-12-26T07:01:03.202Z,19.4
2015-12-26T07:02:03.283Z,19.37
2015-12-26T07:03:03.146Z,19.45
2015-12-26T07:04:03.117Z,19.39
2015-12-26T07:05:03.276Z,19.39
2015-12-26T07:06:03.075Z,19.44
2015-12-26T07:07:03.032Z,19.45
2015-12-26T07:08:02.988Z,19.4
2015-12-26T07:09:02.974Z,19.37
2015-12-26T07:10:02.899Z,19.41
2015-12-26T07:11:02.902Z,19.44
2015-12-26T07:12:02.890Z,19.47
2015-12-26T07:13:02.985Z,19.44
2015-12-26T07:14:02.832Z,19.41
2015-12-26T07:15:02.787Z,19.4
2015-12-26T07:16:02.760Z,19.39
2015-12-26T07:17:02.731Z,19.37
2015-12-26T07:18:02.718Z,19.45
2015-12-26T07:19:02.673Z,19.45
2015-12-26T07:20:02.942Z,19.37
2015-12-26T07:21:02.773Z,19.39
2015-12-26T07:22:02.604Z,19.4
2015-12-26T07:23:02.560Z,19.39
2015-12-26T07:24:02.640Z,19.4
2015-12-26T07:25:02.503Z,19.33
2015-12-26T07:26:02.317Z,19.36
2015-12-26T07:27:02.446Z,19.37
2015-12-26T07:28:02.621Z,19.29
2015-12-26T07:29:02.373Z,19.39
2015-12-26T07:30:02.359Z,19.37
2015-12-26T07:31:02.316Z,19.39
2015-12-26T07:32:02.412Z,19.39
2015-12-26T07:33:02.478Z,19.37
2015-12-26T07:34:02.228Z,19.41
2015-12-26T07:35:02.184Z,19.4
2015-12-26T07:36:02.170Z,19.31
2015-12-26T07:37:02.142Z,19.41
2015-12-26T07:38:02.113Z,19.27
2015-12-26T07:39:02.085Z,19.39
2015-12-26T07:40:02.088Z,19.39
2015-12-26T07:41:02.028Z,19.36
2015-12-26T07:42:01.999Z,19.4
2015-12-26T07:43:01.971Z,19.39
2015-12-26T07:44:01.927Z,19.4
2015-12-26T07:45:01.898Z,19.33
2015-12-26T07:46:01.886Z,19.39
2015-12-26T07:47:02.060Z,19.4
2015-12-26T07:48:01.797Z,19.37
2015-12-26T07:49:01.784Z,19.37
2015-12-26T07:50:01.959Z,19.27
2015-12-26T07:51:01.869Z,19.37
2015-12-26T07:52:01.683Z,19.39
2015-12-26T07:53:01.655Z,19.29
2015-12-26T07:54:01.627Z,19.36
2015-12-26T07:55:01.645Z,19.4
2015-12-26T07:56:01.570Z,19.36
2015-12-26T07:57:01.541Z,19.36
2015-12-26T07:58:01.731Z,19.39
2015-12-26T07:59:01.499Z,19.3
2015-12-26T08:00:01.909Z,19.33
2015-12-26T08:01:01.427Z,19.45
2015-12-26T08:02:01.399Z,19.33
2015-12-26T08:03:01.386Z,19.36
2015-12-26T08:04:01.341Z,19.69
2015-12-26T08:05:01.313Z,19.85
2015-12-26T08:06:01.378Z,19.92
2015-12-26T08:07:01.255Z,19.95
2015-12-26T08:08:01.274Z,20.13
2015-12-26T08:09:01.386Z,20.21
2015-12-26T08:10:01.154Z,20.34
2015-12-26T08:11:01.126Z,20.44
2015-12-26T08:12:01.113Z,20.52
2015-12-26T08:13:01.069Z,20.59
2015-12-26T08:14:01.041Z,20.81
2015-12-26T08:15:01.013Z,20.92
2015-12-26T08:16:00.983Z,21.05
2015-12-26T08:17:01.158Z,21.29
2015-12-26T08:18:00.924Z,21.12
2015-12-26T08:19:00.879Z,21.32
2015-12-26T08:20:00.882Z,21.33
2015-12-26T08:21:00.838Z,21.29
2015-12-26T08:22:00.793Z,21.3
2015-12-26T08:23:00.782Z,21.3
2015-12-26T08:24:03.785Z,21.29
2015-12-26T08:25:00.912Z,21.4
2015-12-26T08:26:00.680Z,21.35
2015-12-26T08:27:00.651Z,21.46
2015-12-26T08:28:00.826Z,21.42
2015-12-26T08:29:00.595Z,21.33
2015-12-26T08:30:00.582Z,21.37
2015-12-26T08:31:00.678Z,21.43
2015-12-26T08:32:00.509Z,21.32
2015-12-26T08:33:00.496Z,21.32
2015-12-26T08:34:00.483Z,21.32
2015-12-26T08:35:00.424Z,21.29
2015-12-26T08:36:00.598Z,21.36
2015-12-26T08:37:00.367Z,21.46
2015-12-26T08:38:00.338Z,21.52
2015-12-26T08:39:00.294Z,21.64
2015-12-26T08:40:00.265Z,21.76
2015-12-26T08:41:00.237Z,21.79
2015-12-26T08:42:00.224Z,21.93
2015-12-26T08:43:00.180Z,21.88
2015-12-26T08:44:00.245Z,21.98
2015-12-26T08:45:00.139Z,21.85
2015-12-26T08:46:00.110Z,21.85
2015-12-26T08:47:00.270Z,21.99
2015-12-26T08:48:00.038Z,22.02
2015-12-26T08:49:00.009Z,21.99
2015-12-26T08:50:00.012Z,21.89
2015-12-26T08:50:59.967Z,21.85
2015-12-26T08:51:59.923Z,21.83
2015-12-26T08:52:59.911Z,21.82
2015-12-26T08:53:59.882Z,21.75
2015-12-26T08:54:59.885Z,21.76
2015-12-26T08:55:59.825Z,21.72
2015-12-26T08:56:59.781Z,21.66
2015-12-26T08:57:59.753Z,21.73
2015-12-26T08:58:59.739Z,21.67
2015-12-26T08:59:59.726Z,21.64
2015-12-26T09:00:59.511Z,21.66
2015-12-26T09:01:59.639Z,21.72
2015-12-26T09:02:59.828Z,21.58
2015-12-26T09:03:59.597Z,21.52
2015-12-26T09:04:59.552Z,21.64
2015-12-26T09:05:59.727Z,21.55
2015-12-26T09:06:59.699Z,21.48
2015-12-26T09:07:59.495Z,21.46
2015-12-26T09:08:59.436Z,21.48
2015-12-26T09:09:59.396Z,21.4
2015-12-26T09:10:59.399Z,21.37
2015-12-26T09:11:59.668Z,21.37
2015-12-26T09:12:59.341Z,21.42
2015-12-26T09:13:59.484Z,21.39
2015-12-26T09:14:59.268Z,21.3
2015-12-26T09:15:59.272Z,21.25
2015-12-26T09:16:59.196Z,21.32
2015-12-26T09:17:59.168Z,21.32
2015-12-26T09:18:59.155Z,21.25
2015-12-26T09:19:59.126Z,21.22
2015-12-26T09:20:59.098Z,21.21
2015-12-26T09:21:59.273Z,21.21
2015-12-26T09:22:59.040Z,21.2
2015-12-26T09:23:59.012Z,21.17
2015-12-26T09:24:59.015Z,21.21
2015-12-26T09:25:59.081Z,21.12
2015-12-26T09:26:58.927Z,21.29
2015-12-26T09:27:58.915Z,21.32
2015-12-26T09:28:58.871Z,21.29
2015-12-26T09:29:58.842Z,21.33
2015-12-26T09:30:58.829Z,21.35
2015-12-26T09:31:58.800Z,21.35
2015-12-26T09:32:58.740Z,21.4
2015-12-26T09:33:58.837Z,21.32
2015-12-26T09:34:58.699Z,21.45
2015-12-26T09:35:58.701Z,21.61
2015-12-26T09:36:58.782Z,21.66
2015-12-26T09:37:58.614Z,21.55
2015-12-26T09:38:58.601Z,21.67
2015-12-26T09:39:58.557Z,21.7
2015-12-26T09:40:58.809Z,21.83
2015-12-26T09:41:58.640Z,21.93
2015-12-26T09:42:58.596Z,22.02
2015-12-26T09:43:58.598Z,22.04
2015-12-26T09:45:01.397Z,22
2015-12-26T09:45:58.464Z,22.1
2015-12-26T09:46:58.514Z,22.04
2015-12-26T09:47:58.328Z,22.1
2015-12-26T09:48:58.580Z,22.13
2015-12-26T09:49:58.256Z,22.06
2015-12-26T09:50:58.243Z,22.04
2015-12-26T09:51:58.245Z,22.06
2015-12-26T09:52:58.530Z,22
2015-12-26T09:54:01.188Z,21.95
2015-12-26T09:54:58.222Z,22.1
2015-12-26T09:55:58.333Z,22.08
2015-12-26T09:56:58.052Z,21.91
2015-12-26T09:57:58.353Z,21.89
2015-12-26T09:58:57.902Z,21.83
2015-12-26T09:59:58.030Z,21.88
2015-12-26T10:00:57.330Z,21.91
2015-12-26T10:01:57.911Z,21.79
2015-12-26T10:02:57.897Z,21.79
2015-12-26T10:03:58.088Z,21.61
2015-12-26T10:04:57.825Z,21.54
2015-12-26T10:05:57.813Z,21.43
2015-12-26T10:06:57.783Z,21.45
2015-12-26T10:07:57.849Z,21.32
2015-12-26T10:08:57.727Z,21.32
2015-12-26T10:09:57.698Z,21.29
2015-12-26T10:10:57.670Z,21.32
2015-12-26T10:11:57.797Z,21.35
2015-12-26T10:12:57.613Z,21.54
2015-12-26T10:13:57.585Z,21.51
2015-12-26T10:14:57.759Z,21.5
2015-12-26T10:15:57.527Z,21.43
2015-12-26T10:16:57.499Z,21.43
2015-12-26T10:17:57.471Z,21.61
2015-12-26T10:18:57.552Z,21.48
2015-12-26T10:19:57.604Z,21.6
2015-12-26T10:20:57.404Z,21.58
2015-12-26T10:21:57.345Z,21.6
2015-12-26T10:22:57.551Z,21.62
2015-12-26T10:23:57.287Z,21.55
2015-12-26T10:24:57.306Z,21.69
2015-12-26T10:25:57.246Z,21.64
2015-12-26T10:26:57.234Z,21.3
2015-12-26T10:27:57.189Z,21.09
2015-12-26T10:28:57.161Z,20.59
2015-12-26T10:29:57.148Z,20.47
2015-12-26T10:30:57.276Z,20.1
2015-12-26T10:31:57.091Z,20.02
2015-12-26T10:32:57.344Z,19.84
2015-12-26T10:33:57.097Z,19.69
2015-12-26T10:34:57.020Z,19.54
2015-12-26T10:35:56.961Z,19.41
2015-12-26T10:36:56.933Z,19.39
2015-12-26T10:37:56.904Z,19.39
2015-12-26T10:38:58.970Z,19.3
2015-12-26T10:39:56.878Z,19.31
2015-12-26T10:40:57.459Z,19.3
2015-12-26T10:41:56.975Z,19.27
2015-12-26T10:42:56.758Z,19.14
2015-12-26T10:43:56.746Z,19.08
2015-12-26T10:44:56.702Z,18.99
2015-12-26T10:45:56.672Z,18.95
2015-12-26T10:46:56.645Z,18.98
2015-12-26T10:47:56.475Z,18.96
2015-12-26T10:48:56.650Z,18.74
2015-12-26T10:49:56.717Z,18.78
2015-12-26T10:50:56.531Z,18.65
2015-12-26T10:51:56.519Z,18.53
2015-12-26T10:52:56.662Z,18.55
2015-12-26T10:53:56.430Z,18.6
2015-12-26T10:54:59.495Z,18.5
2015-12-26T10:55:56.390Z,18.4
2015-12-26T10:56:56.408Z,18.44
2015-12-26T10:57:56.473Z,18.56
2015-12-26T10:58:56.304Z,18.59
2015-12-26T10:59:56.275Z,18.55
2015-12-26T11:00:56.497Z,18.59
2015-12-26T11:01:59.218Z,18.52
2015-12-26T11:02:56.174Z,18.63
2015-12-26T11:03:56.162Z,18.71
2015-12-26T11:04:56.117Z,18.92
2015-12-26T11:05:56.104Z,19.02
2015-12-26T11:06:56.044Z,19.33
2015-12-26T11:07:56.031Z,19.41
2015-12-26T11:08:56.175Z,19.56
2015-12-26T11:09:55.975Z,19.63
2015-12-26T11:10:56.229Z,19.82
2015-12-26T11:11:55.747Z,19.88
2015-12-26T11:12:55.890Z,19.91
2015-12-26T11:13:55.862Z,19.89
2015-12-26T11:14:55.818Z,19.94
2015-12-26T11:15:55.789Z,20
2015-12-26T11:16:55.854Z,20
2015-12-26T11:17:55.747Z,19.99
2015-12-26T11:18:55.734Z,20.02
2015-12-26T11:19:55.753Z,20
2015-12-26T11:20:56.053Z,19.99
2015-12-26T11:21:56.228Z,20.02
2015-12-26T11:22:55.901Z,20.02
2015-12-26T11:23:55.576Z,20.06
2015-12-26T11:24:55.689Z,20.07
2015-12-26T11:25:55.535Z,20.11
2015-12-26T11:26:55.475Z,20.18
2015-12-26T11:27:55.665Z,20.18
2015-12-26T11:28:55.434Z,20.19
2015-12-26T11:29:55.437Z,20.22
2015-12-26T11:30:55.375Z,20.13
2015-12-26T11:31:55.345Z,20.09
2015-12-26T11:32:55.317Z,20.09
2015-12-26T11:33:55.289Z,20
2015-12-26T11:34:55.245Z,20.04
2015-12-26T11:35:55.544Z,20
2015-12-26T11:36:55.186Z,20.04
2015-12-26T11:37:55.159Z,19.96
2015-12-26T11:38:55.350Z,20
2015-12-26T11:39:55.102Z,19.96
2015-12-26T11:40:55.073Z,20
2015-12-26T11:41:55.045Z,19.99
2015-12-26T11:42:55.017Z,19.95
2015-12-26T11:43:55.285Z,19.99
2015-12-26T11:44:54.975Z,19.96
2015-12-26T11:45:54.931Z,20.02
2015-12-26T11:46:55.121Z,19.92
2015-12-26T11:47:54.889Z,19.96
2015-12-26T11:48:54.877Z,19.95
2015-12-26T11:49:55.019Z,19.92
2015-12-26T11:50:54.805Z,20
2015-12-26T11:51:54.775Z,20.02
2015-12-26T11:52:54.731Z,20
2015-12-26T11:53:54.703Z,20.03
2015-12-26T11:54:54.831Z,20.03
2015-12-26T11:55:54.647Z,20.06
2015-12-26T11:56:54.623Z,20.09
2015-12-26T11:57:54.798Z,20.02
2015-12-26T11:58:54.567Z,20.07
2015-12-26T11:59:55.022Z,20.06
2015-12-26T12:00:54.509Z,20.04
2015-12-26T12:01:54.465Z,19.96
2015-12-26T12:02:54.436Z,20.03
2015-12-26T12:03:54.408Z,20.02
2015-12-26T12:04:54.380Z,20.07
2015-12-26T12:05:54.570Z,20.09
2015-12-26T12:06:54.339Z,19.95
2015-12-26T12:07:54.295Z,19.96
2015-12-26T12:08:54.297Z,19.96
2015-12-26T12:09:54.253Z,20.14
2015-12-26T12:10:54.225Z,20.1
2015-12-26T12:11:54.180Z,20.03
2015-12-26T12:12:54.826Z,20.03
2015-12-26T12:13:54.537Z,20.11
2015-12-26T12:14:54.087Z,20.03
2015-12-26T12:15:54.659Z,20.06
2015-12-26T12:16:54.190Z,20.06
2015-12-26T12:17:54.068Z,20.07
2015-12-26T12:18:54.055Z,20.06
2015-12-26T12:19:53.948Z,20.03
2015-12-26T12:20:53.920Z,20.07
2015-12-26T12:21:53.891Z,20.13
2015-12-26T12:23:51.115Z,20.04
2015-12-26T12:24:04.100Z,20.04
2015-12-26T12:25:04.493Z,20.06
2015-12-26T12:26:03.966Z,19.96
2015-12-26T12:27:03.938Z,19.96
2015-12-26T12:28:03.909Z,20.06
2015-12-26T12:29:03.880Z,20.02
2015-12-26T12:30:03.868Z,20.02
2015-12-26T12:31:03.838Z,20.09
2015-12-26T12:32:03.794Z,20.02
2015-12-26T12:33:03.766Z,20.11
2015-12-26T12:34:03.738Z,20.1
2015-12-26T12:35:03.724Z,20.13
2015-12-26T12:36:03.680Z,20.04
2015-12-26T12:37:03.637Z,19.99
2015-12-26T12:38:03.593Z,20.02
2015-12-26T12:39:03.611Z,20.02
2015-12-26T12:40:03.566Z,19.96
2015-12-26T12:41:03.523Z,19.94
2015-12-26T12:42:03.526Z,19.96
2015-12-26T12:43:03.466Z,20.02
